createdAt,value
2022-08-20T00:03:53.173Z,1.50
2022-08-20T00:08:55.953Z,1.88
2022-08-20T00:14:00.835Z,1.40
2022-08-20T00:19:06.248Z,1.60
2022-08-20T00:24:08.555Z,1.45
2022-08-20T00:29:10.811Z,1.70
2022-08-20T00:34:15.075Z,1.58
2022-08-20T00:39:17.265Z,1.35
2022-08-20T00:44:22.641Z,1.30
2022-08-20T00:49:32.246Z,1.50
2022-08-20T00:54:37.245Z,1.30
2022-08-20T00:59:41.906Z,1.30
2022-08-20T01:04:54.726Z,1.20
2022-08-20T01:09:58.997Z,1.70
2022-08-20T01:15:05.015Z,1.58
2022-08-20T01:20:21.427Z,1.27
2022-08-20T01:25:44.152Z,1.65
2022-08-20T01:30:46.647Z,1.42
2022-08-20T01:35:50.345Z,1.40
2022-08-20T01:41:04.496Z,1.50
2022-08-20T01:46:06.702Z,1.67
2022-08-20T01:51:23.480Z,1.58
2022-08-20T01:56:29.609Z,1.55
2022-08-20T02:01:46.309Z,1.10
2022-08-20T02:06:57.687Z,1.30
2022-08-20T02:12:00.880Z,1.60
2022-08-20T02:17:03.265Z,1.30
2022-08-20T02:22:17.892Z,1.38
2022-08-20T02:27:23.764Z,1.40
2022-08-20T02:37:37.612Z,1.20
2022-08-20T02:42:42.021Z,1.20
2022-08-20T02:47:45.694Z,1.85
2022-08-20T02:52:51.805Z,1.30
2022-08-20T02:57:59.973Z,1.17
2022-08-20T03:03:02.584Z,1.30
2022-08-20T03:08:06.012Z,1.20
2022-08-20T03:13:12.444Z,1.30
2022-08-20T03:18:16.040Z,1.33
2022-08-20T03:23:20.346Z,1.30
2022-08-20T03:28:22.576Z,0.95
2022-08-20T03:33:25.070Z,1.35
2022-08-20T03:38:32.315Z,1.33
2022-08-20T03:43:37.447Z,1.52
2022-08-20T03:48:40.244Z,1.40
2022-08-20T03:53:42.384Z,1.45
2022-08-20T03:58:44.528Z,1.40
2022-08-20T04:03:49.130Z,1.27
2022-08-20T04:08:53.874Z,1.35
2022-08-20T04:13:56.032Z,1.45
2022-08-20T04:19:02.494Z,1.00
2022-08-20T04:24:06.320Z,1.20
2022-08-20T04:29:09.182Z,1.48
2022-08-20T04:34:11.427Z,1.20
2022-08-20T04:39:15.828Z,1.30
2022-08-20T04:44:18.126Z,1.20
2022-08-20T04:49:26.402Z,1.10
2022-08-20T04:54:28.737Z,1.70
2022-08-20T04:59:30.994Z,1.02
2022-08-20T05:04:33.265Z,1.30
2022-08-20T05:09:44.196Z,1.40
2022-08-20T05:14:47.388Z,1.33
2022-08-20T05:19:51.588Z,1.20
2022-08-20T05:24:55.849Z,1.08
2022-08-20T05:30:10.226Z,1.20
2022-08-20T05:35:15.623Z,1.15
2022-08-20T05:40:17.849Z,1.80
2022-08-20T05:45:21.451Z,1.45
2022-08-20T05:50:24.192Z,1.20
2022-08-20T05:55:26.352Z,1.30
2022-08-20T06:00:30.410Z,1.20
2022-08-20T06:05:32.628Z,1.20
2022-08-20T06:10:35.449Z,1.33
2022-08-20T06:15:38.100Z,1.20
2022-08-20T06:20:41.236Z,1.25
2022-08-20T06:25:43.603Z,1.27
2022-08-20T06:30:45.819Z,1.40
2022-08-20T06:35:49.095Z,1.10
2022-08-20T06:40:51.582Z,1.13
2022-08-20T06:45:56.426Z,1.70
2022-08-20T06:50:58.709Z,1.50
2022-08-20T06:56:00.993Z,1.15
2022-08-20T07:01:09.297Z,1.23
2022-08-20T07:06:12.687Z,1.13
2022-08-20T07:11:14.843Z,1.40
2022-08-20T07:16:17.181Z,1.40
2022-08-20T07:21:19.479Z,1.20
2022-08-20T07:26:23.710Z,1.30
2022-08-20T07:31:44.217Z,1.25
2022-08-20T07:36:50.400Z,1.20
2022-08-20T07:42:03.273Z,1.23
2022-08-20T07:47:06.773Z,1.75
2022-08-20T07:52:08.941Z,1.35
2022-08-20T07:57:12.134Z,1.25
2022-08-20T08:02:14.670Z,1.33
2022-08-20T08:07:17.216Z,1.60
2022-08-20T08:12:20.871Z,1.88
2022-08-20T08:17:23.168Z,2.00
2022-08-20T08:22:25.841Z,2.13
2022-08-20T08:27:33.323Z,2.80
2022-08-20T08:32:37.728Z,2.30
2022-08-20T08:37:39.992Z,2.60
2022-08-20T08:42:58.147Z,2.38
2022-08-20T08:48:01.185Z,2.10
2022-08-20T08:53:05.727Z,1.83
2022-08-20T08:58:17.165Z,2.15
2022-08-20T09:03:32.800Z,2.10
2022-08-20T09:08:46.679Z,1.83
2022-08-20T09:13:49.288Z,1.40
2022-08-20T09:18:51.968Z,1.65
2022-08-20T09:23:54.101Z,1.17
2022-08-20T09:28:56.251Z,1.30
2022-08-20T09:33:58.473Z,1.60
2022-08-20T09:39:02.831Z,1.50
2022-08-20T09:44:05.297Z,1.50
2022-08-20T09:49:09.433Z,1.90
2022-08-20T09:54:12.729Z,1.92
2022-08-20T09:59:16.527Z,1.40
2022-08-20T10:04:18.717Z,1.52
2022-08-20T10:09:20.992Z,1.25
2022-08-20T10:14:23.088Z,1.52
2022-08-20T10:19:26.390Z,1.80
2022-08-20T10:24:29.212Z,1.52
2022-08-20T10:29:31.539Z,1.60
2022-08-20T10:34:33.651Z,1.88
2022-08-20T10:39:36.008Z,2.00
2022-08-20T10:44:38.790Z,1.80
2022-08-20T10:49:41.176Z,1.90
2022-08-20T10:54:43.523Z,2.22
2022-08-20T10:59:47.565Z,1.50
2022-08-20T11:04:50.530Z,2.05
2022-08-20T11:09:52.754Z,1.50
2022-08-20T11:14:55.909Z,1.70
2022-08-20T11:19:59.414Z,1.63
2022-08-20T11:25:02.329Z,2.17
2022-08-20T11:30:07.748Z,1.70
2022-08-20T11:35:40.588Z,2.37
2022-08-20T11:40:32.832Z,1.50
2022-08-20T11:45:37.783Z,2.10
2022-08-20T11:50:40.272Z,1.60
2022-08-20T11:55:43.109Z,2.03
2022-08-20T12:00:45.448Z,1.70
2022-08-20T12:05:47.843Z,1.90
2022-08-20T12:10:49.983Z,1.67
2022-08-20T12:15:54.812Z,1.80
2022-08-20T12:20:56.911Z,1.67
2022-08-20T12:26:02.819Z,2.20
2022-08-20T12:31:05.160Z,2.30
2022-08-20T12:36:07.580Z,2.00
2022-08-20T12:41:09.791Z,2.00
2022-08-20T12:46:12.309Z,2.17
2022-08-20T12:51:14.465Z,2.22
2022-08-20T12:56:17.259Z,2.17
2022-08-20T13:01:19.455Z,2.42
2022-08-20T13:06:22.254Z,1.90
2022-08-20T13:11:24.980Z,2.10
2022-08-20T13:16:27.186Z,1.90
2022-08-20T13:21:29.879Z,2.22
2022-08-20T13:26:32.017Z,2.40
2022-08-20T13:31:34.291Z,1.60
2022-08-20T13:36:37.198Z,2.17
2022-08-20T13:41:39.323Z,1.80
2022-08-20T13:46:41.454Z,1.35
2022-08-20T13:51:43.666Z,1.80
2022-08-20T13:56:46.016Z,1.85
2022-08-20T14:01:48.178Z,1.85
2022-08-20T14:06:50.325Z,1.80
2022-08-20T14:11:52.452Z,1.60
2022-08-20T14:16:54.534Z,1.70
2022-08-20T14:21:56.626Z,1.80
2022-08-20T14:26:58.727Z,2.15
2022-08-20T14:32:01.036Z,2.03
2022-08-20T14:37:15.945Z,2.08
2022-08-20T14:42:18.647Z,2.33
2022-08-20T14:47:29.874Z,2.15
2022-08-20T14:52:36.525Z,1.75
2022-08-20T14:57:40.062Z,2.03
2022-08-20T15:02:42.287Z,2.35
2022-08-20T15:07:48.237Z,1.60
2022-08-20T15:12:50.921Z,2.28
2022-08-20T15:17:57.485Z,2.15
2022-08-20T15:23:00.796Z,2.17
2022-08-20T15:28:04.612Z,1.73
2022-08-20T15:33:07.308Z,2.40
2022-08-20T15:38:09.445Z,2.22
2022-08-20T15:43:11.541Z,1.88
2022-08-20T15:48:17.708Z,2.10
2022-08-20T15:53:56.603Z,1.50
2022-08-20T15:59:11.000Z,1.98
2022-08-20T16:04:50.892Z,1.70
2022-08-20T16:10:15.532Z,1.95
2022-08-20T16:15:30.297Z,1.70
2022-08-20T16:20:41.344Z,1.88
2022-08-20T16:26:18.596Z,1.95
2022-08-20T16:31:26.378Z,1.95
2022-08-20T16:37:03.526Z,1.98
2022-08-20T16:42:09.734Z,1.73
2022-08-20T16:47:22.380Z,2.00
2022-08-20T16:52:24.542Z,1.77
2022-08-20T16:57:28.472Z,2.03
2022-08-20T17:02:30.580Z,1.98
2022-08-20T17:07:51.394Z,1.92
2022-08-20T17:13:19.224Z,1.90
2022-08-20T17:18:25.717Z,2.17
2022-08-20T17:23:28.257Z,2.00
2022-08-20T17:28:35.005Z,2.58
2022-08-20T17:33:39.974Z,1.88
2022-08-20T17:38:53.533Z,2.33
2022-08-20T17:44:08.267Z,1.70
2022-08-20T17:49:14.772Z,2.25
2022-08-20T17:54:39.289Z,2.20
2022-08-20T18:00:00.651Z,2.10
2022-08-20T18:05:09.876Z,1.70
2022-08-20T18:10:14.715Z,2.25
2022-08-20T18:15:31.111Z,1.43
2022-08-20T18:20:54.615Z,2.08
2022-08-20T18:26:05.030Z,1.80
2022-08-20T18:31:10.425Z,1.45
2022-08-20T18:36:18.672Z,1.52
2022-08-20T18:41:39.867Z,1.52
2022-08-20T18:47:02.227Z,1.50
2022-08-20T18:52:23.313Z,1.40
2022-08-20T18:57:40.843Z,1.67
2022-08-20T19:03:09.669Z,1.10
2022-08-20T19:08:29.562Z,1.75
2022-08-20T19:13:46.099Z,1.70
2022-08-20T19:18:53.018Z,1.50
2022-08-20T19:23:57.758Z,1.60
2022-08-20T19:29:08.724Z,1.80
2022-08-20T19:34:21.824Z,1.85
2022-08-20T19:39:26.399Z,1.20
2022-08-20T19:45:02.382Z,1.50
2022-08-20T19:50:16.532Z,1.52
2022-08-20T19:55:24.042Z,2.20
2022-08-20T20:00:30.091Z,1.58
2022-08-20T20:05:32.387Z,1.80
2022-08-20T20:10:36.605Z,2.10
2022-08-20T20:15:39.836Z,1.65
2022-08-20T20:21:13.715Z,2.20
2022-08-20T20:26:20.010Z,1.52
2022-08-20T20:31:30.871Z,1.65
2022-08-20T20:36:45.253Z,1.33
2022-08-20T20:41:53.132Z,1.48
2022-08-20T20:46:59.208Z,1.52
2022-08-20T20:52:05.518Z,1.50
2022-08-20T20:57:17.108Z,1.42
2022-08-20T21:02:23.107Z,1.48
2022-08-20T21:07:25.909Z,1.48
2022-08-20T21:12:28.103Z,1.35
2022-08-20T21:17:30.414Z,1.17
2022-08-20T21:22:32.607Z,1.40
2022-08-20T21:27:35.756Z,1.70
2022-08-20T21:32:38.059Z,1.42
2022-08-20T21:37:40.370Z,1.50
2022-08-20T21:42:44.219Z,1.77
2022-08-20T21:47:48.815Z,1.65
2022-08-20T21:52:55.294Z,1.83
2022-08-20T21:58:02.853Z,1.23
2022-08-20T22:03:05.109Z,1.40
2022-08-20T22:08:07.328Z,1.90
2022-08-20T22:13:09.647Z,1.42
2022-08-20T22:18:13.976Z,1.70
2022-08-20T22:23:16.434Z,1.50
2022-08-20T22:28:19.833Z,1.58
2022-08-20T22:33:23.796Z,1.70
2022-08-20T22:38:26.556Z,1.98
2022-08-20T22:43:28.778Z,1.63
2022-08-20T22:48:32.709Z,1.45
2022-08-20T22:53:35.805Z,1.48
2022-08-20T22:58:38.179Z,1.50
2022-08-20T23:03:41.358Z,1.48
2022-08-20T23:08:45.173Z,1.40
2022-08-20T23:13:47.402Z,1.67
2022-08-20T23:18:49.899Z,1.17
2022-08-20T23:23:52.153Z,1.20
2022-08-20T23:28:54.306Z,1.33
2022-08-20T23:33:56.581Z,1.40
2022-08-20T23:38:58.824Z,1.33
2022-08-20T23:44:01.535Z,1.50
2022-08-20T23:49:04.862Z,1.50
2022-08-20T23:54:07.089Z,1.63
2022-08-20T23:59:09.302Z,1.52
